createdAt,value
2022-08-17T00:00:34.221Z,20.90
2022-08-17T00:03:17.214Z,20.80
2022-08-17T00:06:04.895Z,20.80
2022-08-17T00:08:37.809Z,20.70
2022-08-17T00:11:09.300Z,20.60
2022-08-17T00:13:42.197Z,20.60
2022-08-17T00:16:16.381Z,20.50
2022-08-17T00:19:01.925Z,20.50
2022-08-17T00:22:30.842Z,20.50
2022-08-17T00:24:19.609Z,20.40
2022-08-17T00:26:47.579Z,20.40
2022-08-17T00:29:19.997Z,20.30
2022-08-17T00:31:47.758Z,20.30
2022-08-17T00:34:14.930Z,20.20
2022-08-17T00:36:42.158Z,20.10
2022-08-17T00:39:09.379Z,20.10
2022-08-17T00:41:36.658Z,20.10
2022-08-17T00:44:09.923Z,20.00
2022-08-17T00:46:40.710Z,20.00
2022-08-17T00:49:10.466Z,19.90
2022-08-17T00:52:00.821Z,19.90
2022-08-17T00:54:33.505Z,19.90
2022-08-17T00:57:15.292Z,19.90
2022-08-17T01:00:02.430Z,19.90
2022-08-17T01:02:42.236Z,19.90
2022-08-17T01:05:25.399Z,19.90
2022-08-17T01:07:54.512Z,19.80
2022-08-17T01:10:57.244Z,19.80
2022-08-17T01:13:15.161Z,19.80
2022-08-17T01:15:48.485Z,19.80
2022-08-17T01:18:16.865Z,19.80
2022-08-17T01:20:53.079Z,19.70
2022-08-17T01:23:23.764Z,19.70
2022-08-17T01:25:53.666Z,19.70
2022-08-17T01:28:53.122Z,19.70
2022-08-17T01:31:09.511Z,19.60
2022-08-17T01:33:37.362Z,19.60
2022-08-17T01:36:07.355Z,19.60
2022-08-17T01:38:36.659Z,19.60
2022-08-17T01:41:11.451Z,19.60
2022-08-17T01:43:51.205Z,19.60
2022-08-17T01:46:25.242Z,19.50
2022-08-17T01:48:52.714Z,19.50
2022-08-17T01:51:20.742Z,19.60
2022-08-17T01:53:58.567Z,19.50
2022-08-17T01:56:28.888Z,19.60
2022-08-17T01:58:56.788Z,19.50
2022-08-17T02:01:29.453Z,19.60
2022-08-17T02:04:00.754Z,19.60
2022-08-17T02:06:52.782Z,19.60
2022-08-17T02:09:23.433Z,19.60
2022-08-17T02:11:55.191Z,19.50
2022-08-17T02:14:24.330Z,19.50
2022-08-17T02:16:52.111Z,19.50
2022-08-17T02:19:20.049Z,19.50
2022-08-17T02:21:50.213Z,19.50
2022-08-17T02:24:59.384Z,19.50
2022-08-17T02:27:13.217Z,19.50
2022-08-17T02:29:40.403Z,19.50
2022-08-17T02:32:15.560Z,19.50
2022-08-17T02:34:52.907Z,19.50
2022-08-17T02:37:20.084Z,19.50
2022-08-17T02:39:47.959Z,19.50
2022-08-17T02:42:15.691Z,19.50
2022-08-17T02:44:43.030Z,19.50
2022-08-17T02:47:11.608Z,19.60
2022-08-17T02:49:38.858Z,19.50
2022-08-17T02:52:07.914Z,19.60
2022-08-17T02:54:40.871Z,19.60
2022-08-17T02:57:10.586Z,19.60
2022-08-17T02:59:46.795Z,19.60
2022-08-17T03:02:16.134Z,19.60
2022-08-17T03:04:43.402Z,19.60
2022-08-17T03:07:10.603Z,19.50
2022-08-17T03:09:37.989Z,19.50
2022-08-17T03:12:07.411Z,19.50
2022-08-17T03:14:41.319Z,19.40
2022-08-17T03:17:10.743Z,19.40
2022-08-17T03:19:42.219Z,19.40
2022-08-17T03:22:35.848Z,19.30
2022-08-17T03:24:58.585Z,19.40
2022-08-17T03:27:25.783Z,19.30
2022-08-17T03:29:53.403Z,19.30
2022-08-17T03:32:20.909Z,19.40
2022-08-17T03:34:48.213Z,19.40
2022-08-17T03:37:15.523Z,19.30
2022-08-17T03:39:43.197Z,19.40
2022-08-17T03:42:31.870Z,19.30
2022-08-17T03:45:02.408Z,19.30
2022-08-17T03:47:48.182Z,19.30
2022-08-17T03:50:19.595Z,19.30
2022-08-17T03:53:09.042Z,19.30
2022-08-17T03:55:55.766Z,19.30
2022-08-17T03:58:23.026Z,19.40
2022-08-17T04:00:51.080Z,19.40
2022-08-17T04:03:19.086Z,19.40
2022-08-17T04:05:46.337Z,19.50
2022-08-17T04:08:13.614Z,19.50
2022-08-17T04:10:44.873Z,19.50
2022-08-17T04:13:12.627Z,19.50
2022-08-17T04:15:40.086Z,19.50
2022-08-17T04:18:07.713Z,19.60
2022-08-17T04:20:38.351Z,19.60
2022-08-17T04:23:17.079Z,19.60
2022-08-17T04:25:49.940Z,19.70
2022-08-17T04:28:19.434Z,19.70
2022-08-17T04:30:48.369Z,19.70
2022-08-17T04:33:18.864Z,19.80
2022-08-17T04:35:49.142Z,19.80
2022-08-17T04:38:17.379Z,19.90
2022-08-17T04:41:03.941Z,19.90
2022-08-17T04:43:32.754Z,20.00
2022-08-17T04:46:07.357Z,20.00
2022-08-17T04:48:37.722Z,20.10
2022-08-17T04:51:33.211Z,20.10
2022-08-17T04:54:10.821Z,20.20
2022-08-17T04:56:38.652Z,20.20
2022-08-17T04:59:09.843Z,20.30
2022-08-17T05:01:38.972Z,20.30
2022-08-17T05:04:32.133Z,20.40
2022-08-17T05:06:56.747Z,20.40
2022-08-17T05:09:23.938Z,20.40
2022-08-17T05:11:51.466Z,20.50
2022-08-17T05:14:18.643Z,20.50
2022-08-17T05:16:48.395Z,20.50
2022-08-17T05:19:15.479Z,20.60
2022-08-17T05:21:42.706Z,20.60
2022-08-17T05:24:20.272Z,20.70
2022-08-17T05:26:58.041Z,20.80
2022-08-17T05:29:33.747Z,20.90
2022-08-17T05:32:47.896Z,21.00
2022-08-17T05:35:00.879Z,21.00
2022-08-17T05:37:28.342Z,21.10
2022-08-17T05:39:55.653Z,21.20
2022-08-17T05:42:23.393Z,21.20
2022-08-17T05:44:50.584Z,21.30
2022-08-17T05:47:18.815Z,21.40
2022-08-17T05:49:49.118Z,21.50
2022-08-17T05:52:38.449Z,21.60
2022-08-17T05:55:17.765Z,21.70
2022-08-17T05:58:15.470Z,21.80
2022-08-17T06:00:56.167Z,21.90
2022-08-17T06:04:05.226Z,22.10
2022-08-17T06:06:54.286Z,22.20
2022-08-17T06:09:40.758Z,22.40
2022-08-17T06:12:37.378Z,22.60
2022-08-17T06:15:32.220Z,22.70
2022-08-17T06:18:04.395Z,23.00
2022-08-17T06:20:56.620Z,23.10
2022-08-17T06:23:40.780Z,23.20
2022-08-17T06:26:20.482Z,23.40
2022-08-17T06:29:18.546Z,23.50
2022-08-17T06:31:46.577Z,23.60
2022-08-17T06:34:15.223Z,23.70
2022-08-17T06:37:01.966Z,23.70
2022-08-17T06:39:53.375Z,23.70
2022-08-17T06:43:05.916Z,23.70
2022-08-17T06:45:39.746Z,23.70
2022-08-17T06:48:34.234Z,23.80
2022-08-17T06:51:14.864Z,23.80
2022-08-17T06:54:05.663Z,23.80
2022-08-17T06:57:18.357Z,23.90
2022-08-17T06:59:56.759Z,23.90
2022-08-17T07:02:52.918Z,23.90
2022-08-17T07:05:53.961Z,24.00
2022-08-17T07:08:40.116Z,24.10
2022-08-17T07:11:34.110Z,24.20
2022-08-17T07:14:26.009Z,24.30
2022-08-17T07:16:56.461Z,24.30
2022-08-17T07:19:27.813Z,24.30
2022-08-17T07:22:19.460Z,24.40
2022-08-17T07:25:02.690Z,24.40
2022-08-17T07:27:33.062Z,24.50
2022-08-17T07:30:10.350Z,24.60
2022-08-17T07:32:47.141Z,24.60
2022-08-17T07:35:20.027Z,24.60
2022-08-17T07:37:55.804Z,24.70
2022-08-17T07:40:30.939Z,24.70
2022-08-17T07:43:23.203Z,24.80
2022-08-17T07:46:16.900Z,24.80
2022-08-17T07:48:49.848Z,24.90
2022-08-17T07:51:25.707Z,25.00
2022-08-17T07:54:13.471Z,25.10
2022-08-17T07:56:54.408Z,25.20
2022-08-17T07:59:27.241Z,25.30
2022-08-17T08:02:08.209Z,25.30
2022-08-17T08:05:06.543Z,25.40
2022-08-17T08:07:58.001Z,25.50
2022-08-17T08:10:36.325Z,25.60
2022-08-17T08:13:28.964Z,25.60
2022-08-17T08:16:17.456Z,25.70
2022-08-17T08:18:55.852Z,25.80
2022-08-17T08:21:42.911Z,25.90
2022-08-17T08:24:21.882Z,26.00
2022-08-17T08:27:08.249Z,26.20
2022-08-17T08:29:53.363Z,26.20
2022-08-17T08:32:25.906Z,26.30
2022-08-17T08:35:02.490Z,26.30
2022-08-17T08:38:00.511Z,26.40
2022-08-17T08:40:39.748Z,26.40
2022-08-17T08:43:27.725Z,26.50
2022-08-17T08:46:03.112Z,26.60
2022-08-17T08:49:09.971Z,26.70
2022-08-17T08:52:03.203Z,26.80
2022-08-17T08:54:46.220Z,26.90
2022-08-17T08:57:29.033Z,26.80
2022-08-17T09:00:16.938Z,26.90
2022-08-17T09:03:05.501Z,26.90
2022-08-17T09:05:39.555Z,27.00
2022-08-17T09:08:28.412Z,27.10
2022-08-17T09:11:13.525Z,27.30
2022-08-17T09:14:21.508Z,27.30
2022-08-17T09:17:25.587Z,27.50
2022-08-17T09:20:00.271Z,27.50
2022-08-17T09:22:43.240Z,27.60
2022-08-17T09:25:21.910Z,27.70
2022-08-17T09:28:00.704Z,27.60
2022-08-17T09:30:36.432Z,27.70
2022-08-17T09:33:08.403Z,27.80
2022-08-17T09:35:44.665Z,27.90
2022-08-17T09:38:47.452Z,28.10
2022-08-17T09:41:51.742Z,28.10
2022-08-17T09:44:28.711Z,28.10
2022-08-17T09:47:45.590Z,28.20
2022-08-17T09:51:04.850Z,28.10
2022-08-17T09:53:12.176Z,28.10
2022-08-17T09:56:06.968Z,28.20
2022-08-17T09:58:50.594Z,28.40
2022-08-17T10:01:31.985Z,28.40
2022-08-17T10:04:19.970Z,28.40
2022-08-17T10:06:50.459Z,28.40
2022-08-17T10:09:36.097Z,28.40
2022-08-17T10:12:29.880Z,28.30
2022-08-17T10:15:15.855Z,28.30
2022-08-17T10:17:44.523Z,28.40
2022-08-17T10:20:28.359Z,28.40
2022-08-17T10:23:25.348Z,28.50
2022-08-17T10:26:15.762Z,28.50
2022-08-17T10:29:12.772Z,28.70
2022-08-17T10:31:47.682Z,28.70
2022-08-17T10:34:20.713Z,28.80
2022-08-17T10:36:59.190Z,28.90
2022-08-17T10:39:52.482Z,29.10
2022-08-17T10:42:35.624Z,29.20
2022-08-17T10:45:15.485Z,29.20
2022-08-17T10:48:07.501Z,29.20
2022-08-17T10:50:57.711Z,29.10
2022-08-17T10:53:38.939Z,29.20
2022-08-17T10:56:13.652Z,29.40
2022-08-17T10:58:46.650Z,29.50
2022-08-17T11:01:13.977Z,29.60
2022-08-17T11:03:56.949Z,29.80
2022-08-17T11:06:42.069Z,29.80
2022-08-17T11:09:46.330Z,29.80
2022-08-17T11:12:36.982Z,29.90
2022-08-17T11:15:44.148Z,29.90
2022-08-17T11:18:29.094Z,30.00
2022-08-17T11:21:17.580Z,30.20
2022-08-17T11:24:03.142Z,30.40
2022-08-17T11:26:36.280Z,30.40
2022-08-17T11:29:17.040Z,30.50
2022-08-17T11:31:58.579Z,30.30
2022-08-17T11:34:29.090Z,30.10
2022-08-17T11:37:45.025Z,30.10
2022-08-17T11:40:38.620Z,30.20
2022-08-17T11:43:14.509Z,30.40
2022-08-17T11:46:02.437Z,30.60
2022-08-17T11:48:59.539Z,30.80
2022-08-17T11:52:01.626Z,31.10
2022-08-17T11:54:34.130Z,31.10
2022-08-17T11:57:27.550Z,31.20
2022-08-17T11:59:54.679Z,31.20
2022-08-17T12:02:35.197Z,31.20
2022-08-17T12:05:17.149Z,31.00
2022-08-17T12:07:49.480Z,30.90
2022-08-17T12:10:21.849Z,31.00
2022-08-17T12:12:53.291Z,30.90
2022-08-17T12:15:28.980Z,30.80
2022-08-17T12:17:57.335Z,30.80
2022-08-17T12:20:35.356Z,30.90
2022-08-17T12:23:41.902Z,30.90
2022-08-17T12:26:19.993Z,30.90
2022-08-17T12:29:02.080Z,31.00
2022-08-17T12:31:43.731Z,31.00
2022-08-17T12:34:24.331Z,31.10
2022-08-17T12:36:54.529Z,31.20
2022-08-17T12:39:25.004Z,31.30
2022-08-17T12:42:01.943Z,31.40
2022-08-17T12:44:31.332Z,31.50
2022-08-17T12:47:21.815Z,31.90
2022-08-17T12:49:55.030Z,32.20
2022-08-17T12:52:28.639Z,32.30
2022-08-17T12:55:13.740Z,32.30
2022-08-17T12:57:54.684Z,32.10
2022-08-17T13:00:30.401Z,32.10
2022-08-17T13:03:19.590Z,32.20
2022-08-17T13:05:52.611Z,32.40
2022-08-17T13:08:32.469Z,32.60
2022-08-17T13:11:04.635Z,32.80
2022-08-17T13:13:35.503Z,33.10
2022-08-17T13:16:18.047Z,33.20
2022-08-17T13:18:54.820Z,33.40
2022-08-17T13:21:27.259Z,33.70
2022-08-17T13:24:08.000Z,33.90
2022-08-17T13:26:39.317Z,34.10
2022-08-17T13:29:37.229Z,34.20
2022-08-17T13:32:13.205Z,34.40
2022-08-17T13:35:11.931Z,34.50
2022-08-17T13:37:37.602Z,34.60
2022-08-17T13:40:10.708Z,34.80
2022-08-17T13:42:52.655Z,34.60
2022-08-17T13:45:39.419Z,34.60
2022-08-17T13:48:13.853Z,34.60
2022-08-17T13:50:43.699Z,34.70
2022-08-17T13:53:20.832Z,34.70
2022-08-17T13:56:31.769Z,34.90
2022-08-17T13:59:11.701Z,35.00
2022-08-17T14:01:53.602Z,35.00
2022-08-17T14:04:32.062Z,35.00
2022-08-17T14:07:28.660Z,34.90
2022-08-17T14:10:07.110Z,34.80
2022-08-17T14:12:37.763Z,34.80
2022-08-17T14:15:05.559Z,34.80
2022-08-17T14:17:47.074Z,34.70
2022-08-17T14:20:15.508Z,34.70
2022-08-17T14:22:50.762Z,34.60
2022-08-17T14:25:21.022Z,34.60
2022-08-17T14:27:52.167Z,34.50
2022-08-17T14:30:23.430Z,34.50
2022-08-17T14:32:52.175Z,34.40
2022-08-17T14:35:22.690Z,34.30
2022-08-17T14:37:51.227Z,34.30
2022-08-17T14:40:20.989Z,34.20
2022-08-17T14:42:48.401Z,34.10
2022-08-17T14:45:29.957Z,34.00
2022-08-17T14:48:02.210Z,34.00
2022-08-17T14:50:29.360Z,33.90
2022-08-17T14:52:58.166Z,33.90
2022-08-17T14:55:26.865Z,33.80
2022-08-17T14:57:54.057Z,33.70
2022-08-17T15:00:21.352Z,33.50
2022-08-17T15:02:56.003Z,33.50
2022-08-17T15:05:26.629Z,33.50
2022-08-17T15:07:53.985Z,33.50
2022-08-17T15:10:22.072Z,33.40
2022-08-17T15:12:49.423Z,33.30
2022-08-17T15:15:18.131Z,33.20
2022-08-17T15:17:46.222Z,33.10
2022-08-17T15:20:19.609Z,33.00
2022-08-17T15:22:51.505Z,33.00
2022-08-17T15:25:19.245Z,33.00
2022-08-17T15:27:47.567Z,33.10
2022-08-17T15:30:15.851Z,33.20
2022-08-17T15:32:51.489Z,33.20
2022-08-17T15:35:27.937Z,33.20
2022-08-17T15:38:11.561Z,33.30
2022-08-17T15:40:43.087Z,33.40
2022-08-17T15:43:16.302Z,33.70
2022-08-17T15:45:44.712Z,33.90
2022-08-17T15:48:40.836Z,34.20
2022-08-17T15:51:16.075Z,34.40
2022-08-17T15:53:45.494Z,34.60
2022-08-17T15:56:15.136Z,34.80
2022-08-17T15:58:44.324Z,35.00
2022-08-17T16:01:17.029Z,35.10
2022-08-17T16:04:04.803Z,35.20
2022-08-17T16:06:36.769Z,35.30
2022-08-17T16:09:04.769Z,35.30
2022-08-17T16:11:31.890Z,35.30
2022-08-17T16:13:59.089Z,35.20
2022-08-17T16:16:26.383Z,35.20
2022-08-17T16:18:56.340Z,35.10
2022-08-17T16:21:26.923Z,35.00
2022-08-17T16:24:04.408Z,34.90
2022-08-17T16:26:33.898Z,34.80
2022-08-17T16:29:03.906Z,34.70
2022-08-17T16:31:31.461Z,34.60
2022-08-17T16:34:16.085Z,34.40
2022-08-17T16:36:54.936Z,34.20
2022-08-17T16:39:29.269Z,34.00
2022-08-17T16:41:57.403Z,33.80
2022-08-17T16:44:26.107Z,33.60
2022-08-17T16:46:53.761Z,33.40
2022-08-17T16:49:36.551Z,33.20
2022-08-17T16:52:10.303Z,32.90
2022-08-17T16:54:39.748Z,32.60
2022-08-17T16:57:07.065Z,32.10
2022-08-17T16:59:42.146Z,31.70
2022-08-17T17:02:16.686Z,31.30
2022-08-17T17:05:08.859Z,30.70
2022-08-17T17:07:55.725Z,30.20
2022-08-17T17:10:37.470Z,29.70
2022-08-17T17:13:08.670Z,29.30
2022-08-17T17:16:21.924Z,28.90
2022-08-17T17:19:15.338Z,28.40
2022-08-17T17:22:08.749Z,28.00
2022-08-17T17:25:00.519Z,27.50
2022-08-17T17:27:33.865Z,27.30
2022-08-17T17:30:07.615Z,26.90
2022-08-17T17:32:52.498Z,26.60
2022-08-17T17:35:23.619Z,26.30
2022-08-17T17:37:53.142Z,26.00
2022-08-17T17:40:40.498Z,25.80
2022-08-17T17:43:36.977Z,25.50
2022-08-17T17:46:27.103Z,25.40
2022-08-17T17:48:57.121Z,25.10
2022-08-17T17:51:55.712Z,24.90
2022-08-17T17:54:38.888Z,24.70
2022-08-17T17:57:08.798Z,24.50
2022-08-17T18:00:06.207Z,24.30
2022-08-17T18:02:57.899Z,24.20
2022-08-17T18:06:06.090Z,23.90
2022-08-17T18:08:45.692Z,23.70
2022-08-17T18:11:25.210Z,23.60
2022-08-17T18:14:30.596Z,23.40
2022-08-17T18:17:00.520Z,23.20
2022-08-17T18:19:30.308Z,23.00
2022-08-17T18:22:21.709Z,22.90
2022-08-17T18:24:57.355Z,22.80
2022-08-17T18:27:36.882Z,22.60
2022-08-17T18:30:28.091Z,22.50
2022-08-17T18:33:24.068Z,22.30
2022-08-17T18:35:58.868Z,22.30
2022-08-17T18:38:35.149Z,22.10
2022-08-17T18:41:05.610Z,22.00
2022-08-17T18:43:53.052Z,22.00
2022-08-17T18:46:29.990Z,21.90
2022-08-17T18:49:08.219Z,21.80
2022-08-17T18:51:43.154Z,21.70
2022-08-17T18:54:18.737Z,21.50
2022-08-17T18:57:04.200Z,21.40
2022-08-17T18:59:49.569Z,21.30
2022-08-17T19:02:45.684Z,21.20
2022-08-17T19:05:31.241Z,21.00
2022-08-17T19:08:29.449Z,21.00
2022-08-17T19:11:10.189Z,20.90
2022-08-17T19:13:46.036Z,20.80
2022-08-17T19:16:22.386Z,20.70
2022-08-17T19:18:54.579Z,20.70
2022-08-17T19:21:24.180Z,20.60
2022-08-17T19:24:03.190Z,20.60
2022-08-17T19:26:53.637Z,20.50
2022-08-17T19:29:34.207Z,20.40
2022-08-17T19:32:02.396Z,20.40
2022-08-17T19:34:34.825Z,20.30
2022-08-17T19:37:42.586Z,20.20
2022-08-17T19:40:53.452Z,20.20
2022-08-17T19:43:49.171Z,20.10
2022-08-17T19:46:29.581Z,20.00
2022-08-17T19:49:21.085Z,20.00
2022-08-17T19:52:02.037Z,19.90
2022-08-17T19:54:40.191Z,19.90
2022-08-17T19:57:32.085Z,19.80
2022-08-17T20:00:07.960Z,19.80
2022-08-17T20:02:59.835Z,19.70
2022-08-17T20:05:54.465Z,19.60
2022-08-17T20:08:29.195Z,19.60
2022-08-17T20:11:07.156Z,19.50
2022-08-17T20:13:41.453Z,19.50
2022-08-17T20:16:10.365Z,19.40
2022-08-17T20:18:52.572Z,19.40
2022-08-17T20:21:31.692Z,19.30
2022-08-17T20:24:37.935Z,19.20
2022-08-17T20:27:22.525Z,19.20
2022-08-17T20:30:30.365Z,19.10
2022-08-17T20:32:58.971Z,19.10
2022-08-17T20:35:32.761Z,19.00
2022-08-17T20:38:03.631Z,19.00
2022-08-17T20:40:39.611Z,18.90
2022-08-17T20:43:37.727Z,18.90
2022-08-17T20:46:35.951Z,18.90
2022-08-17T20:49:09.092Z,18.80
2022-08-17T20:52:02.186Z,18.80
2022-08-17T20:54:47.078Z,18.70
2022-08-17T20:57:32.525Z,18.70
2022-08-17T21:00:25.432Z,18.60
2022-08-17T21:03:26.724Z,18.60
2022-08-17T21:06:00.230Z,18.50
2022-08-17T21:08:32.338Z,18.50
2022-08-17T21:11:01.864Z,18.40
2022-08-17T21:13:35.663Z,18.40
2022-08-17T21:16:25.923Z,18.40
2022-08-17T21:19:10.318Z,18.30
2022-08-17T21:21:48.222Z,18.30
2022-08-17T21:24:33.305Z,18.30
2022-08-17T21:27:05.592Z,18.30
2022-08-17T21:29:34.016Z,18.20
2022-08-17T21:32:09.018Z,18.20
2022-08-17T21:34:44.916Z,18.20
2022-08-17T21:37:26.318Z,18.20
2022-08-17T21:40:18.823Z,18.10
2022-08-17T21:42:53.929Z,18.10
2022-08-17T21:45:31.203Z,18.00
2022-08-17T21:48:11.261Z,18.00
2022-08-17T21:50:41.853Z,18.00
2022-08-17T21:53:18.208Z,18.00
2022-08-17T21:55:50.451Z,17.90
2022-08-17T21:58:35.725Z,17.90
2022-08-17T22:01:10.806Z,17.90
2022-08-17T22:03:38.877Z,17.90
2022-08-17T22:06:27.679Z,17.90
2022-08-17T22:09:31.937Z,17.80
2022-08-17T22:12:13.243Z,17.80
2022-08-17T22:14:53.027Z,17.80
2022-08-17T22:17:30.203Z,17.80
2022-08-17T22:20:14.830Z,17.70
2022-08-17T22:23:20.724Z,17.70
2022-08-17T22:26:09.551Z,17.70
2022-08-17T22:28:49.106Z,17.60
2022-08-17T22:31:22.618Z,17.60
2022-08-17T22:34:15.918Z,17.60
2022-08-17T22:36:43.467Z,17.50
2022-08-17T22:39:10.641Z,17.50
2022-08-17T22:41:41.402Z,17.40
2022-08-17T22:44:28.563Z,17.40
2022-08-17T22:47:00.297Z,17.30
2022-08-17T22:49:57.990Z,17.30
2022-08-17T22:53:01.085Z,17.30
2022-08-17T22:55:50.258Z,17.20
2022-08-17T22:58:40.597Z,17.20
2022-08-17T23:01:33.518Z,17.10
2022-08-17T23:04:08.786Z,17.10
2022-08-17T23:06:38.769Z,17.10
2022-08-17T23:09:07.538Z,17.10
2022-08-17T23:11:58.811Z,17.00
2022-08-17T23:14:31.844Z,17.00
2022-08-17T23:16:59.566Z,17.00
2022-08-17T23:19:28.199Z,17.00
2022-08-17T23:21:56.620Z,16.90
2022-08-17T23:24:27.315Z,16.80
2022-08-17T23:26:57.467Z,16.80
2022-08-17T23:29:25.048Z,16.80
2022-08-17T23:31:53.135Z,16.80
2022-08-17T23:34:20.655Z,16.70
2022-08-17T23:36:52.952Z,16.80
2022-08-17T23:39:24.739Z,16.70
2022-08-17T23:41:59.622Z,16.70
2022-08-17T23:44:29.021Z,16.70
2022-08-17T23:46:56.515Z,16.70
2022-08-17T23:49:25.363Z,16.70
2022-08-17T23:51:54.893Z,16.60
2022-08-17T23:54:41.694Z,16.60
2022-08-17T23:57:09.457Z,16.60
2022-08-17T23:59:37.339Z,16.60
